»·PEaware :: EMPIR11 ONP-KEUG

EMPIR11 :: ONP-KEUG

FLIGHT INFORMATION

Flight Status: Arrived
Operator: Unknown
More flights by this operator :: More flights under this callsign
Pilot: Anonymous 3903 (3903)
Aircraft: MCDONNELL-DOUGLAS FA-18 HORNET
(F18)
More flights by this aircraft type
Origin: ONP
Destination: KEUG Mahlon Sweet
United States
More flights between these airports :: More routes between these airports
Route: EUG
File this flight plan on PilotEdge
Remarks:
Altitude:
(Current/Filed)
22,000ft
Speed:
(Current/Filed)
500kts
Departed: 22-Sep-18 02:33 PM
Arrived: 22-Sep-18 03:17 PM
Distance/Time
Traveled:
Not Available
Distance/Time
To Go:
Arrived

Flight Plot

Page will automatically refresh every two minutes.

Flight plan parsing failed; only flown route is shown


Map Options




Map Legend


Flown Route
Filed Route
Departure Airport
Arrival Airport
Navaid (VOR, NDB)
Fix

Horizontal Profiles

Position Reports

Time Latitude Longitude Heading Altitude Ground
Speed
22-Sep-18 14:34 45.280331 -124.979609 257 27340ft 402kts
22-Sep-18 14:35 45.263932 -125.128344 188 27803ft 338kts
22-Sep-18 14:36 45.237391 -124.987047 108 21738ft 514kts
22-Sep-18 14:37 45.156593 -124.814121 136 22388ft 559kts
22-Sep-18 14:38 45.045053 -124.663286 142 22452ft 519kts
22-Sep-18 14:39 44.939204 -124.521851 142 17937ft 524kts
22-Sep-18 14:40 44.837037 -124.391395 141 17251ft 486kts
22-Sep-18 14:41 44.730630 -124.257373 141 17122ft 532kts
22-Sep-18 14:42 44.620247 -124.115714 142 17121ft 539kts
22-Sep-18 14:43 44.517893 -123.960423 131 15957ft 548kts
22-Sep-18 14:44 44.429031 -123.797865 130 11577ft 512kts
22-Sep-18 14:45 44.351905 -123.649429 112 9307ft 384kts
22-Sep-18 14:46 44.352167 -123.520250 86 9080ft 311kts
22-Sep-18 14:47 44.358193 -123.403243 86 8419ft 289kts
22-Sep-18 14:48 44.363982 -123.293169 85 6082ft 275kts
22-Sep-18 14:49 44.359090 -123.196025 156 3921ft 232kts
22-Sep-18 14:50 44.292176 -123.182519 191 3149ft 268kts
22-Sep-18 14:51 44.220793 -123.203198 192 2833ft 252kts
22-Sep-18 14:52 44.162922 -123.215674 188 1141ft 146kts
22-Sep-18 14:53 44.106752 -123.240271 230 2494ft 294kts
22-Sep-18 14:54 44.054179 -123.320060 227 4447ft 278kts
22-Sep-18 14:55 44.000815 -123.397801 227 4483ft 276kts
22-Sep-18 14:56 43.947385 -123.477635 245 5042ft 295kts
22-Sep-18 14:57 43.939874 -123.590024 229 5078ft 296kts
22-Sep-18 14:58 43.895581 -123.554862 47 5118ft 283kts
22-Sep-18 14:59 43.936866 -123.463787 87 4842ft 281kts
22-Sep-18 15:00 43.908535 -123.372166 115 4272ft 251kts
22-Sep-18 15:01 43.889986 -123.280490 91 3866ft 248kts
22-Sep-18 15:02 43.908209 -123.193634 24 3347ft 250kts
22-Sep-18 15:03 43.977063 -123.202841 351 2494ft 247kts
22-Sep-18 15:04 44.040292 -123.213179 352 1953ft 159kts
22-Sep-18 15:05 44.081678 -123.217117 352 1053ft 144kts
22-Sep-18 15:06 44.131623 -123.235863 307 2260ft 274kts
22-Sep-18 15:07 44.106285 -123.307588 201 4713ft 255kts
22-Sep-18 15:08 44.047533 -123.367463 207 5073ft 279kts
22-Sep-18 15:09 44.006424 -123.443574 300 5179ft 292kts
22-Sep-18 15:10 44.084141 -123.447098 16 5054ft 308kts
22-Sep-18 15:11 44.164865 -123.409425 16 5051ft 306kts
22-Sep-18 15:12 44.246573 -123.371213 16 4770ft 316kts
22-Sep-18 15:13 44.320730 -123.331545 42 3896ft 262kts
22-Sep-18 15:14 44.319702 -123.241407 145 3109ft 242kts
22-Sep-18 15:15 44.265613 -123.219479 183 3094ft 161kts
22-Sep-18 15:16 44.222608 -123.219571 183 2049ft 156kts
22-Sep-18 15:17 44.180337 -123.219320 184 1320ft 146kts
22-Sep-18 15:18 44.140855 -123.219093 184 515ft 140kts
22-Sep-18 15:19 44.120329 -123.217978 131 377ft 17kts
22-Sep-18 15:20 44.117411 -123.214778 41 377ft 0kts
22-Sep-18 15:21 44.117411 -123.214778 41 377ft 0kts
22-Sep-18 15:22 44.117411 -123.214778 41 377ft 0kts
22-Sep-18 15:23 44.117411 -123.214778 41 377ft 0kts

Navigation Log

Ident Type
Flight plan parsing failed, navigation log unavailable